Terminal Aerodrome Forecast
Issued by NWS Jackson, MS

Home | Current Version | Previous Version | Text Only | Print | Product List | Glossary On
Versions: 1 2 3 4 5 6 7 8 9 10 11 12 13 14 15
000
FTUS44 KJAN 271151
TAFGLH
TAF
KGLH 271151Z 2712/2812 18011G18KT P6SM SCT025 BKN040
     FM271300 18011KT P6SM BKN015
     FM271500 20013KT P6SM OVC025
     FM271900 21014G23KT P6SM -SHRA VCTS OVC035CB
     FM272200 21010KT P6SM VCTS BKN050CB
     FM280800 28005KT 4SM BR VCSH OVC010=

USA.gov is the U.S. government's official web portal to all federal, state and local government web resources and services.